createdAt,value
2019-06-07T00:01:59.698Z,3.10
2019-06-07T00:04:27.808Z,2.23
2019-06-07T00:06:55.819Z,2.20
2019-06-07T00:09:23.848Z,2.03
2019-06-07T00:11:51.887Z,1.93
2019-06-07T00:14:21.186Z,1.73
2019-06-07T00:16:49.465Z,2.37
2019-06-07T00:19:18.965Z,2.40
2019-06-07T00:22:15.556Z,2.00
2019-06-07T00:24:22.847Z,2.30
2019-06-07T00:26:58.441Z,1.87
2019-06-07T00:29:21.799Z,2.13
2019-06-07T00:31:50.225Z,2.63
2019-06-07T00:34:19.955Z,2.50
2019-06-07T00:36:47.968Z,3.47
2019-06-07T00:39:20.290Z,2.03
2019-06-07T00:41:45.688Z,2.30
2019-06-07T00:44:15.147Z,2.43
2019-06-07T00:46:43.394Z,2.40
2019-06-07T00:49:13.602Z,2.77
2019-06-07T00:51:50.377Z,2.30
2019-06-07T00:54:12.304Z,2.40
2019-06-07T00:56:40.613Z,2.03
2019-06-07T00:59:11.657Z,2.33
2019-06-07T01:01:38.360Z,2.27
2019-06-07T01:04:06.368Z,2.27
2019-06-07T01:06:34.520Z,2.37
2019-06-07T01:09:02.649Z,2.27
2019-06-07T01:11:30.645Z,2.93
2019-06-07T01:13:58.674Z,2.33
2019-06-07T01:16:26.698Z,2.20
2019-06-07T01:18:54.729Z,2.43
2019-06-07T01:21:24.890Z,2.40
2019-06-07T01:24:10.876Z,2.00
2019-06-07T01:26:26.310Z,2.23
2019-06-07T01:28:51.821Z,2.03
2019-06-07T01:31:21.148Z,2.67
2019-06-07T01:33:51.290Z,2.07
2019-06-07T01:36:46.332Z,1.83
2019-06-07T01:39:14.363Z,2.07
2019-06-07T01:41:42.348Z,1.70
2019-06-07T01:44:10.391Z,2.00
2019-06-07T01:46:38.566Z,2.13
2019-06-07T01:49:06.577Z,1.83
2019-06-07T01:51:35.576Z,2.17
2019-06-07T01:54:48.677Z,2.70
2019-06-07T01:56:33.415Z,1.67
2019-06-07T01:59:01.460Z,1.93
2019-06-07T02:01:34.952Z,1.87
2019-06-07T02:03:59.247Z,2.30
2019-06-07T02:06:31.703Z,2.00
2019-06-07T02:08:57.008Z,1.87
2019-06-07T02:11:26.614Z,2.00
2019-06-07T02:13:54.850Z,1.87
2019-06-07T02:16:25.473Z,1.60
2019-06-07T02:19:01.656Z,1.83
2019-06-07T02:21:24.708Z,1.80
2019-06-07T02:23:51.893Z,2.00
2019-06-07T02:26:20.435Z,2.20
2019-06-07T02:28:48.678Z,1.90
2019-06-07T02:31:16.798Z,1.83
2019-06-07T02:33:44.822Z,1.70
2019-06-07T02:36:12.885Z,2.53
2019-06-07T02:38:40.890Z,2.00
2019-06-07T02:41:09.148Z,2.20
2019-06-07T02:43:37.486Z,2.57
2019-06-07T02:46:25.086Z,1.60
2019-06-07T02:48:40.348Z,1.73
2019-06-07T02:51:08.689Z,1.70
2019-06-07T02:53:40.147Z,1.90
2019-06-07T02:58:41.558Z,2.13
2019-06-07T03:01:09.330Z,1.80
2019-06-07T03:03:39.382Z,1.80
2019-06-07T03:06:05.086Z,2.03
2019-06-07T03:08:35.469Z,1.83
2019-06-07T03:11:03.056Z,1.97
2019-06-07T03:13:34.905Z,2.07
2019-06-07T03:16:03.967Z,1.90
2019-06-07T03:18:56.089Z,1.90
2019-06-07T03:21:27.781Z,2.23
2019-06-07T03:23:56.369Z,2.47
2019-06-07T03:26:25.045Z,2.20
2019-06-07T03:28:54.169Z,2.10
2019-06-07T03:31:22.220Z,2.10
2019-06-07T03:33:50.507Z,2.13
2019-06-07T03:36:25.438Z,1.90
2019-06-07T03:38:48.483Z,2.43
2019-06-07T03:41:16.882Z,2.30
2019-06-07T03:43:44.877Z,2.13
2019-06-07T03:46:12.925Z,2.10
2019-06-07T03:48:41.504Z,2.20
2019-06-07T03:51:24.127Z,2.10
2019-06-07T03:53:40.844Z,1.80
2019-06-07T03:56:09.184Z,2.70
2019-06-07T03:58:48.526Z,2.27
2019-06-07T04:01:07.119Z,2.33
2019-06-07T04:03:45.389Z,1.90
2019-06-07T04:06:04.922Z,1.73
2019-06-07T04:08:34.457Z,2.27
2019-06-07T04:11:02.734Z,2.10
2019-06-07T04:13:36.687Z,2.30
2019-06-07T04:16:00.466Z,2.50
2019-06-07T04:18:28.504Z,2.23
2019-06-07T04:20:56.574Z,2.20
2019-06-07T04:23:28.170Z,1.60
2019-06-07T04:25:54.306Z,2.00
2019-06-07T04:28:22.391Z,1.90
2019-06-07T04:30:50.418Z,2.03
2019-06-07T04:33:18.454Z,1.93
2019-06-07T04:35:46.471Z,1.53
2019-06-07T04:38:14.945Z,1.67
2019-06-07T04:40:43.385Z,1.40
2019-06-07T04:43:11.820Z,1.57
2019-06-07T04:45:46.629Z,1.80
2019-06-07T04:48:09.811Z,1.50
2019-06-07T04:50:41.054Z,1.30
2019-06-07T04:53:08.014Z,1.77
2019-06-07T04:55:38.633Z,1.73
2019-06-07T04:58:05.984Z,1.43
2019-06-07T05:00:51.928Z,1.90
2019-06-07T05:03:05.124Z,1.57
2019-06-07T05:05:34.540Z,1.17
2019-06-07T05:08:07.576Z,1.50
2019-06-07T05:10:35.099Z,1.50
2019-06-07T05:13:02.184Z,1.50
2019-06-07T05:15:30.209Z,1.10
2019-06-07T05:17:58.241Z,1.30
2019-06-07T05:20:26.247Z,1.60
2019-06-07T05:22:54.279Z,1.30
2019-06-07T05:25:22.352Z,1.50
2019-06-07T05:27:50.384Z,1.60
2019-06-07T05:30:59.758Z,1.73
2019-06-07T05:32:54.051Z,1.70
2019-06-07T05:35:22.143Z,1.83
2019-06-07T05:37:50.290Z,2.03
2019-06-07T05:40:21.442Z,1.50
2019-06-07T05:42:49.674Z,1.50
2019-06-07T05:45:19.943Z,1.60
2019-06-07T05:47:50.928Z,1.50
2019-06-07T05:50:38.334Z,1.30
2019-06-07T05:52:47.678Z,1.50
2019-06-07T05:55:15.817Z,1.30
2019-06-07T05:57:49.186Z,1.00
2019-06-07T06:00:13.553Z,1.40
2019-06-07T06:03:00.240Z,1.47
2019-06-07T06:05:31.936Z,0.90
2019-06-07T06:07:45.329Z,1.10
2019-06-07T06:10:10.690Z,1.30
2019-06-07T06:12:44.726Z,1.60
2019-06-07T06:15:08.555Z,1.47
2019-06-07T06:17:40.566Z,1.10
2019-06-07T06:20:06.424Z,1.30
2019-06-07T06:22:34.478Z,1.33
2019-06-07T06:25:30.970Z,0.93
2019-06-07T06:30:01.919Z,1.00
2019-06-07T06:32:41.937Z,1.27
2019-06-07T06:34:59.878Z,1.23
2019-06-07T06:37:27.939Z,1.47
2019-06-07T06:39:55.973Z,1.20
2019-06-07T06:42:45.457Z,1.40
2019-06-07T06:45:13.849Z,1.47
2019-06-07T06:47:43.313Z,1.37
2019-06-07T06:50:12.128Z,1.20
2019-06-07T06:52:43.618Z,1.27
2019-06-07T06:55:11.126Z,0.97
2019-06-07T06:57:41.480Z,1.43
2019-06-07T07:00:11.821Z,1.33
2019-06-07T07:03:26.913Z,0.83
2019-06-07T07:05:11.008Z,1.03
2019-06-07T07:07:40.287Z,1.10
2019-06-07T07:10:09.065Z,1.13
2019-06-07T07:12:37.087Z,0.93
2019-06-07T07:15:14.339Z,1.33
2019-06-07T07:17:56.578Z,0.97
2019-06-07T07:23:33.689Z,1.07
2019-06-07T07:29:23.551Z,1.07
2019-06-07T07:31:54.352Z,1.00
2019-06-07T07:34:33.410Z,0.90
2019-06-07T07:36:57.885Z,1.33
2019-06-07T07:39:20.753Z,1.20
2019-06-07T07:42:13.762Z,1.43
2019-06-07T07:44:18.508Z,1.60
2019-06-07T07:46:46.671Z,1.50
2019-06-07T07:49:15.387Z,1.30
2019-06-07T07:51:44.034Z,1.30
2019-06-07T07:54:12.208Z,1.60
2019-06-07T07:56:40.344Z,1.43
2019-06-07T07:59:08.710Z,1.43
2019-06-07T08:01:37.184Z,1.07
2019-06-07T08:04:05.221Z,1.07
2019-06-07T08:06:33.240Z,1.40
2019-06-07T08:09:01.304Z,1.33
2019-06-07T08:11:29.377Z,1.20
2019-06-07T08:13:58.826Z,1.30
2019-06-07T08:16:35.985Z,1.53
2019-06-07T08:19:04.681Z,1.30
2019-06-07T08:21:32.879Z,1.03
2019-06-07T08:24:04.506Z,1.40
2019-06-07T08:26:30.739Z,1.50
2019-06-07T08:29:02.487Z,1.40
2019-06-07T08:31:28.456Z,1.70
2019-06-07T08:33:58.320Z,1.10
2019-06-07T08:36:41.417Z,1.20
2019-06-07T08:39:00.483Z,1.10
2019-06-07T08:41:25.734Z,1.40
2019-06-07T08:43:56.449Z,1.80
2019-06-07T08:46:23.637Z,1.33
2019-06-07T08:48:53.363Z,0.90
2019-06-07T08:51:21.480Z,1.20
2019-06-07T08:54:08.481Z,1.13
2019-06-07T08:56:19.217Z,1.20
2019-06-07T08:58:47.384Z,1.30
2019-06-07T09:01:15.479Z,1.43
2019-06-07T09:03:43.500Z,1.40
2019-06-07T09:06:53.566Z,1.00
2019-06-07T09:08:41.212Z,1.20
2019-06-07T09:11:11.143Z,1.10
2019-06-07T09:13:39.112Z,1.40
2019-06-07T09:16:08.986Z,0.90
2019-06-07T09:18:43.559Z,1.30
2019-06-07T09:21:09.479Z,1.50
2019-06-07T09:23:36.324Z,1.00
2019-06-07T09:26:12.865Z,1.43
2019-06-07T09:28:34.409Z,1.30
2019-06-07T09:31:06.907Z,1.43
2019-06-07T09:33:32.261Z,1.23
2019-06-07T09:36:01.553Z,1.00
2019-06-07T09:38:30.005Z,1.30
2019-06-07T09:40:59.740Z,1.90
2019-06-07T09:45:58.810Z,2.60
2019-06-07T09:49:08.882Z,1.30
2019-06-07T09:51:02.092Z,1.40
2019-06-07T09:53:26.600Z,1.40
2019-06-07T09:55:54.626Z,1.03
2019-06-07T10:00:52.389Z,1.07
2019-06-07T10:03:22.597Z,1.53
2019-06-07T10:05:50.172Z,1.40
2019-06-07T10:09:31.665Z,1.67
2019-06-07T10:10:48.007Z,0.93
2019-06-07T10:13:16.153Z,0.97
2019-06-07T10:15:44.189Z,1.30
2019-06-07T10:18:12.248Z,1.07
2019-06-07T10:20:40.243Z,1.33
2019-06-07T10:23:09.962Z,1.60
2019-06-07T10:25:38.214Z,1.00
2019-06-07T10:28:06.349Z,0.83
2019-06-07T10:30:34.474Z,1.07
2019-06-07T10:33:02.531Z,0.70
2019-06-07T10:35:30.706Z,1.00
2019-06-07T10:37:58.848Z,1.17
2019-06-07T10:40:27.102Z,0.93
2019-06-07T10:42:55.166Z,1.10
2019-06-07T10:45:23.331Z,1.20
2019-06-07T10:47:51.396Z,1.20
2019-06-07T10:50:19.457Z,1.00
2019-06-07T10:52:47.495Z,1.40
2019-06-07T10:55:16.175Z,1.47
2019-06-07T10:57:44.208Z,1.10
2019-06-07T11:00:13.823Z,1.40
2019-06-07T11:02:41.894Z,1.10
2019-06-07T11:05:10.299Z,1.20
2019-06-07T11:07:38.724Z,1.10
2019-06-07T11:10:11.693Z,1.33
2019-06-07T11:12:36.669Z,1.47
2019-06-07T11:15:06.505Z,2.17
2019-06-07T11:17:34.812Z,1.80
2019-06-07T11:20:02.905Z,1.17
2019-06-07T11:22:30.941Z,1.23
2019-06-07T11:24:59.031Z,2.47
2019-06-07T11:27:27.289Z,1.63
2019-06-07T11:29:55.347Z,1.30
2019-06-07T11:32:23.443Z,1.73
2019-06-07T11:34:51.602Z,2.23
2019-06-07T11:37:19.608Z,1.30
2019-06-07T11:39:47.662Z,1.00
2019-06-07T11:42:15.730Z,1.30
2019-06-07T11:44:56.292Z,1.03
2019-06-07T11:47:14.554Z,1.20
2019-06-07T11:49:42.858Z,1.27
2019-06-07T11:52:11.415Z,1.20
2019-06-07T11:54:39.596Z,1.20
2019-06-07T11:57:08.781Z,2.60
2019-06-07T11:59:36.955Z,1.80
2019-06-07T12:02:50.086Z,3.23
2019-06-07T12:05:19.891Z,2.90
2019-06-07T12:07:47.852Z,2.13
2019-06-07T12:10:20.527Z,6.10
2019-06-07T12:12:45.745Z,3.87
2019-06-07T12:15:15.048Z,4.17
2019-06-07T12:17:43.206Z,2.77
2019-06-07T12:20:14.258Z,2.07
2019-06-07T12:22:41.203Z,1.70
2019-06-07T12:25:10.536Z,1.70
2019-06-07T12:27:38.696Z,1.47
2019-06-07T12:30:17.550Z,2.37
2019-06-07T12:32:39.501Z,2.73
2019-06-07T12:35:07.770Z,2.17
2019-06-07T12:37:43.883Z,1.53
2019-06-07T12:40:05.691Z,1.70
2019-06-07T12:42:33.707Z,1.20
2019-06-07T12:45:01.749Z,1.40
2019-06-07T12:47:29.907Z,1.43
2019-06-07T12:49:58.057Z,1.60
2019-06-07T12:52:26.085Z,2.03
2019-06-07T12:54:54.138Z,1.50
2019-06-07T12:57:22.183Z,1.47
2019-06-07T12:59:50.225Z,1.30
2019-06-07T13:02:19.989Z,1.50
2019-06-07T13:04:48.185Z,2.30
2019-06-07T13:07:17.877Z,2.43
2019-06-07T13:09:46.112Z,2.70
2019-06-07T13:12:15.457Z,4.00
2019-06-07T13:14:43.631Z,1.57
2019-06-07T13:17:11.639Z,1.63
2019-06-07T13:19:39.739Z,2.87
2019-06-07T13:22:07.849Z,2.37
2019-06-07T13:24:35.864Z,1.63
2019-06-07T13:27:03.905Z,2.90
2019-06-07T13:29:32.371Z,1.70
2019-06-07T13:32:00.639Z,1.57
2019-06-07T13:34:28.666Z,1.50
2019-06-07T13:36:56.790Z,4.70
2019-06-07T13:39:27.789Z,3.43
2019-06-07T13:41:54.651Z,5.20
2019-06-07T13:44:22.953Z,2.33
2019-06-07T13:46:51.183Z,5.80
2019-06-07T13:49:19.472Z,1.43
2019-06-07T13:51:47.712Z,2.60
2019-06-07T13:54:15.743Z,1.20
2019-06-07T13:57:01.533Z,9.43
2019-06-07T13:59:13.624Z,8.40
2019-06-07T14:01:41.663Z,4.87
2019-06-07T14:04:09.745Z,6.47
2019-06-07T14:06:37.802Z,4.33
2019-06-07T14:09:06.773Z,10.43
2019-06-07T14:11:49.472Z,3.83
2019-06-07T14:14:05.025Z,1.67
2019-06-07T14:16:33.054Z,1.50
2019-06-07T14:19:01.103Z,3.97
2019-06-07T14:21:29.149Z,5.33
2019-06-07T14:23:57.179Z,2.80
2019-06-07T14:26:25.296Z,2.47
2019-06-07T14:28:53.347Z,1.50
2019-06-07T14:31:22.156Z,1.23
2019-06-07T14:33:50.256Z,2.20
2019-06-07T14:36:18.288Z,2.13
2019-06-07T14:38:46.357Z,1.40
2019-06-07T14:41:14.475Z,1.83
2019-06-07T14:43:42.589Z,2.00
2019-06-07T14:46:10.771Z,1.37
2019-06-07T14:48:38.800Z,1.60
2019-06-07T14:51:06.880Z,2.83
2019-06-07T14:53:35.142Z,3.33
2019-06-07T14:56:03.191Z,1.60
2019-06-07T14:58:31.710Z,2.00
2019-06-07T15:00:59.929Z,2.10
2019-06-07T15:03:28.409Z,1.40
2019-06-07T15:05:56.609Z,1.57
2019-06-07T15:08:24.641Z,1.90
2019-06-07T15:10:52.675Z,4.73
2019-06-07T15:13:20.746Z,2.70
2019-06-07T15:15:48.745Z,1.43
2019-06-07T15:18:16.797Z,2.20
2019-06-07T15:20:45.588Z,2.50
2019-06-07T15:23:13.728Z,2.50
2019-06-07T15:25:41.836Z,5.80
2019-06-07T15:28:10.028Z,4.20
2019-06-07T15:30:38.078Z,3.77
2019-06-07T15:33:06.174Z,4.20
2019-06-07T15:35:36.007Z,1.80
2019-06-07T15:38:04.631Z,1.63
2019-06-07T15:40:33.168Z,1.97
2019-06-07T15:43:01.535Z,3.33
2019-06-07T15:45:29.779Z,3.40
2019-06-07T15:47:57.962Z,3.97
2019-06-07T15:50:28.690Z,1.93
2019-06-07T15:52:55.834Z,2.90
2019-06-07T15:55:24.067Z,2.80
2019-06-07T15:57:52.292Z,5.00
2019-06-07T16:00:20.632Z,3.60
2019-06-07T16:02:48.781Z,2.77
2019-06-07T16:05:17.230Z,3.33
2019-06-07T16:07:45.259Z,4.90
2019-06-07T16:13:35.127Z,1.73
2019-06-07T16:16:03.183Z,1.27
2019-06-07T16:18:31.206Z,3.30
2019-06-07T16:20:59.730Z,10.13
2019-06-07T16:23:27.988Z,12.20
2019-06-07T16:25:56.064Z,3.23
2019-06-07T16:28:24.111Z,1.67
2019-06-07T16:30:52.162Z,2.73
2019-06-07T16:33:20.187Z,3.40
2019-06-07T16:35:48.267Z,3.60
2019-06-07T16:38:16.285Z,3.17
2019-06-07T16:40:44.642Z,2.30
2019-06-07T16:43:17.906Z,6.13
2019-06-07T16:45:42.852Z,6.77
2019-06-07T16:48:11.006Z,8.00
2019-06-07T16:51:02.882Z,6.47
2019-06-07T16:53:30.978Z,5.73
2019-06-07T16:55:59.058Z,4.23
2019-06-07T16:58:37.736Z,3.43
2019-06-07T17:01:05.925Z,3.87
2019-06-07T17:03:34.106Z,5.53
2019-06-07T17:06:02.421Z,2.00
2019-06-07T17:08:33.444Z,2.53
2019-06-07T17:11:01.488Z,2.73
2019-06-07T17:13:33.272Z,4.80
2019-06-07T17:15:59.281Z,5.53
2019-06-07T17:18:27.340Z,1.60
2019-06-07T17:20:55.444Z,1.63
2019-06-07T17:23:23.620Z,1.77
2019-06-07T17:25:51.827Z,2.20
2019-06-07T17:28:19.851Z,1.60
2019-06-07T17:30:48.354Z,1.50
2019-06-07T17:33:16.496Z,1.60
2019-06-07T17:35:44.790Z,3.33
2019-06-07T17:38:13.149Z,2.97
2019-06-07T17:40:41.300Z,2.30
2019-06-07T17:43:10.640Z,2.00
2019-06-07T17:45:38.828Z,1.50
2019-06-07T17:48:06.972Z,2.00
2019-06-07T17:50:35.084Z,2.37
2019-06-07T17:53:03.190Z,2.10
2019-06-07T17:55:31.405Z,1.80
2019-06-07T17:57:59.421Z,2.00
2019-06-07T18:00:33.311Z,4.37
2019-06-07T18:03:00.290Z,4.17
2019-06-07T18:05:28.347Z,5.90
2019-06-07T18:07:57.188Z,3.80
2019-06-07T18:10:43.772Z,2.90
2019-06-07T18:13:11.990Z,9.00
2019-06-07T18:15:41.009Z,8.83
2019-06-07T18:18:09.177Z,6.07
2019-06-07T18:20:37.217Z,6.40
2019-06-07T18:23:05.363Z,5.27
2019-06-07T18:25:33.387Z,3.73
2019-06-07T18:28:01.435Z,3.97
2019-06-07T18:30:29.461Z,4.37
2019-06-07T18:32:57.581Z,3.10
2019-06-07T18:35:25.622Z,3.03
2019-06-07T18:37:55.088Z,2.43
2019-06-07T18:40:23.336Z,3.10
2019-06-07T18:42:51.396Z,1.57
2019-06-07T18:45:19.521Z,1.83
2019-06-07T18:47:47.880Z,3.80
2019-06-07T18:50:15.949Z,2.07
2019-06-07T18:52:46.640Z,2.30
2019-06-07T18:55:16.271Z,2.03
2019-06-07T18:57:44.449Z,1.70
2019-06-07T19:03:34.322Z,1.80
2019-06-07T19:06:02.425Z,1.77
2019-06-07T19:08:42.649Z,1.80
2019-06-07T19:11:10.746Z,2.00
2019-06-07T19:13:57.257Z,1.87
2019-06-07T19:16:25.299Z,1.73
2019-06-07T19:18:53.721Z,2.10
2019-06-07T19:22:09.794Z,1.70
2019-06-07T19:27:46.986Z,1.90
2019-06-07T19:30:27.238Z,2.80
2019-06-07T19:32:55.298Z,1.70
2019-06-07T19:35:23.624Z,1.97
2019-06-07T19:37:51.901Z,1.80
2019-06-07T19:40:21.306Z,2.30
2019-06-07T19:42:49.306Z,1.80
2019-06-07T19:45:29.855Z,1.70
2019-06-07T19:47:47.170Z,2.20
2019-06-07T19:50:15.218Z,2.00
2019-06-07T19:52:43.319Z,2.13
2019-06-07T19:55:11.358Z,1.73
2019-06-07T19:58:03.907Z,2.00
2019-06-07T20:00:32.114Z,1.73
2019-06-07T20:03:00.153Z,1.90
2019-06-07T20:05:28.258Z,1.80
2019-06-07T20:11:05.842Z,2.50
2019-06-07T20:14:10.160Z,1.90
2019-06-07T20:16:38.236Z,2.13
2019-06-07T20:19:06.365Z,2.27
2019-06-07T20:21:40.745Z,2.30
2019-06-07T20:24:25.947Z,2.30
2019-06-07T20:26:38.571Z,2.43
2019-06-07T20:29:14.526Z,2.33
2019-06-07T20:31:36.340Z,2.23
2019-06-07T20:34:05.801Z,2.23
2019-06-07T20:36:34.187Z,2.67
2019-06-07T20:39:02.249Z,3.03
2019-06-07T20:41:30.424Z,2.50
2019-06-07T20:43:59.718Z,1.87
2019-06-07T20:46:27.868Z,2.37
2019-06-07T20:48:55.904Z,2.07
2019-06-07T20:51:23.961Z,3.10
2019-06-07T20:53:52.237Z,2.60
2019-06-07T20:56:20.327Z,2.23
2019-06-07T20:58:48.347Z,2.30
2019-06-07T21:01:16.597Z,3.00
2019-06-07T21:03:44.625Z,3.20
2019-06-07T21:06:45.878Z,2.97
2019-06-07T21:09:13.918Z,3.97
2019-06-07T21:11:41.970Z,3.40
2019-06-07T21:14:10.283Z,3.10
2019-06-07T21:16:38.452Z,3.07
2019-06-07T21:19:06.683Z,3.50
2019-06-07T21:21:34.702Z,4.40
2019-06-07T21:27:12.052Z,4.60
2019-06-07T21:29:40.218Z,4.80
2019-06-07T21:32:09.524Z,3.80
2019-06-07T21:34:37.720Z,5.17
2019-06-07T21:37:05.844Z,5.53
2019-06-07T21:39:33.850Z,5.70
2019-06-07T21:42:02.266Z,5.83
2019-06-07T21:44:30.220Z,5.70
2019-06-07T21:46:58.274Z,7.40
2019-06-07T21:49:26.368Z,7.93
2019-06-07T21:51:54.411Z,5.13
2019-06-07T21:54:22.440Z,5.30
2019-06-07T21:56:50.509Z,5.80
2019-06-07T21:59:18.518Z,5.70
2019-06-07T22:01:46.798Z,5.50
2019-06-07T22:04:14.931Z,5.57
2019-06-07T22:06:43.072Z,5.63
2019-06-07T22:09:12.387Z,5.80
2019-06-07T22:11:40.551Z,6.57
2019-06-07T22:14:08.572Z,7.10
2019-06-07T22:16:36.617Z,6.90
2019-06-07T22:19:04.671Z,5.13
2019-06-07T22:21:32.706Z,6.10
2019-06-07T22:24:00.776Z,5.60
2019-06-07T22:26:28.917Z,5.87
2019-06-07T22:28:56.941Z,5.17
2019-06-07T22:31:25.180Z,5.90
2019-06-07T22:33:53.414Z,5.97
2019-06-07T22:36:21.435Z,6.77
2019-06-07T22:38:49.461Z,6.27
2019-06-07T22:41:17.667Z,6.50
2019-06-07T22:43:48.843Z,6.13
2019-06-07T22:46:16.900Z,6.07
2019-06-07T22:48:44.926Z,7.83
2019-06-07T22:51:14.503Z,8.10
2019-06-07T22:53:43.283Z,7.53
2019-06-07T22:56:40.314Z,5.67
2019-06-07T22:59:11.933Z,7.23
2019-06-07T23:01:38.024Z,6.13
2019-06-07T23:04:06.157Z,6.93
2019-06-07T23:06:34.221Z,6.07
2019-06-07T23:09:02.224Z,6.23
2019-06-07T23:11:30.510Z,5.03
2019-06-07T23:13:58.535Z,4.67
2019-06-07T23:16:26.753Z,4.90
2019-06-07T23:18:54.928Z,5.67
2019-06-07T23:21:23.063Z,6.70
2019-06-07T23:23:51.104Z,6.87
2019-06-07T23:26:20.523Z,3.87
2019-06-07T23:28:48.732Z,4.53
2019-06-07T23:31:16.791Z,4.97
2019-06-07T23:33:44.831Z,6.17
2019-06-07T23:36:12.949Z,5.60
2019-06-07T23:38:40.952Z,6.00
2019-06-07T23:41:09.027Z,5.60
2019-06-07T23:43:37.113Z,6.40
2019-06-07T23:46:05.164Z,6.73
2019-06-07T23:48:33.263Z,5.70
2019-06-07T23:51:01.278Z,4.90
2019-06-07T23:53:29.354Z,5.90
2019-06-07T23:55:57.524Z,5.13
2019-06-07T23:58:25.580Z,5.07
